sensor_id;sensor_type;location;lat;lon;timestamp;pressure;altitude;pressure_sealevel;temperature;humidity
12969;BME280;6549;53.128;8.182;2022-07-23T00:00:53;101776.31;;;15.05;100.00
12969;BME280;6549;53.128;8.182;2022-07-23T00:03:54;101767.22;;;15.01;100.00
12969;BME280;6549;53.128;8.182;2022-07-23T00:06:54;101774.69;;;14.94;100.00
12969;BME280;6549;53.128;8.182;2022-07-23T00:09:55;101775.47;;;14.87;100.00
12969;BME280;6549;53.128;8.182;2022-07-23T00:12:55;101774.69;;;14.90;100.00
12969;BME280;6549;53.128;8.182;2022-07-23T00:15:55;101776.66;;;14.90;100.00
12969;BME280;6549;53.128;8.182;2022-07-23T00:18:57;101781.41;;;14.93;100.00
12969;BME280;6549;53.128;8.182;2022-07-23T00:21:58;101782.22;;;14.93;100.00
12969;BME280;6549;53.128;8.182;2022-07-23T00:24:58;101789.75;;;15.00;100.00
12969;BME280;6549;53.128;8.182;2022-07-23T00:28:00;101793.34;;;15.04;100.00
12969;BME280;6549;53.128;8.182;2022-07-23T00:31:01;101788.97;;;15.03;100.00
12969;BME280;6549;53.128;8.182;2022-07-23T00:34:01;101786.19;;;14.99;100.00
12969;BME280;6549;53.128;8.182;2022-07-23T00:37:01;101788.16;;;14.99;100.00
12969;BME280;6549;53.128;8.182;2022-07-23T00:40:02;101769.59;;;14.96;100.00
12969;BME280;6549;53.128;8.182;2022-07-23T00:43:03;101767.63;;;15.00;100.00
12969;BME280;6549;53.128;8.182;2022-07-23T00:46:04;101754.16;;;14.95;100.00
12969;BME280;6549;53.128;8.182;2022-07-23T00:49:04;101762.03;;;14.86;100.00
12969;BME280;6549;53.128;8.182;2022-07-23T00:52:05;101750.91;;;14.78;100.00
12969;BME280;6549;53.128;8.182;2022-07-23T00:55:07;101758.41;;;14.74;100.00
12969;BME280;6549;53.128;8.182;2022-07-23T00:58:08;101766.69;;;14.67;100.00
12969;BME280;6549;53.128;8.182;2022-07-23T01:01:09;101764.31;;;14.62;100.00
12969;BME280;6549;53.128;8.182;2022-07-23T01:04:11;101757.59;;;14.63;100.00
12969;BME280;6549;53.128;8.182;2022-07-23T01:07:11;101759.94;;;14.65;100.00
12969;BME280;6549;53.128;8.182;2022-07-23T01:10:11;101758.78;;;14.66;100.00
12969;BME280;6549;53.128;8.182;2022-07-23T01:13:30;101757.19;;;14.65;100.00
12969;BME280;6549;53.128;8.182;2022-07-23T01:16:31;101753.25;;;14.69;100.00
12969;BME280;6549;53.128;8.182;2022-07-23T01:19:31;101752.84;;;14.64;100.00
12969;BME280;6549;53.128;8.182;2022-07-23T01:22:31;101761.97;;;14.64;100.00
12969;BME280;6549;53.128;8.182;2022-07-23T01:25:32;101773.03;;;14.64;100.00
12969;BME280;6549;53.128;8.182;2022-07-23T01:28:32;101761.53;;;14.62;100.00
12969;BME280;6549;53.128;8.182;2022-07-23T01:31:33;101756.41;;;14.64;100.00
12969;BME280;6549;53.128;8.182;2022-07-23T01:34:33;101756.38;;;14.57;100.00
12969;BME280;6549;53.128;8.182;2022-07-23T01:37:34;101746.88;;;14.55;100.00
12969;BME280;6549;53.128;8.182;2022-07-23T01:40:34;101749.25;;;14.53;100.00
12969;BME280;6549;53.128;8.182;2022-07-23T01:43:35;101747.28;;;14.53;100.00
12969;BME280;6549;53.128;8.182;2022-07-23T01:46:35;101743.72;;;14.53;100.00
12969;BME280;6549;53.128;8.182;2022-07-23T01:49:35;101748.06;;;14.50;100.00
12969;BME280;6549;53.128;8.182;2022-07-23T01:52:36;101742.09;;;14.48;100.00
12969;BME280;6549;53.128;8.182;2022-07-23T01:55:36;101733.41;;;14.46;100.00
12969;BME280;6549;53.128;8.182;2022-07-23T01:58:36;101742.53;;;14.50;100.00
12969;BME280;6549;53.128;8.182;2022-07-23T02:01:37;101732.63;;;14.49;100.00
12969;BME280;6549;53.128;8.182;2022-07-23T02:04:37;101725.06;;;14.39;100.00
12969;BME280;6549;53.128;8.182;2022-07-23T02:07:37;101713.59;;;14.33;100.00
12969;BME280;6549;53.128;8.182;2022-07-23T02:10:38;101718.31;;;14.33;100.00
12969;BME280;6549;53.128;8.182;2022-07-23T02:13:38;101710.03;;;14.33;100.00
12969;BME280;6549;53.128;8.182;2022-07-23T02:16:38;101709.59;;;14.31;100.00
12969;BME280;6549;53.128;8.182;2022-07-23T02:19:39;101707.63;;;14.28;100.00
12969;BME280;6549;53.128;8.182;2022-07-23T02:22:39;101704.84;;;14.28;100.00
12969;BME280;6549;53.128;8.182;2022-07-23T02:25:40;101712.81;;;14.36;100.00
12969;BME280;6549;53.128;8.182;2022-07-23T02:28:41;101700.13;;;14.32;100.00
12969;BME280;6549;53.128;8.182;2022-07-23T02:31:41;101708.00;;;14.30;100.00
12969;BME280;6549;53.128;8.182;2022-07-23T02:34:41;101702.88;;;14.28;100.00
12969;BME280;6549;53.128;8.182;2022-07-23T02:37:42;101703.25;;;14.27;100.00
12969;BME280;6549;53.128;8.182;2022-07-23T02:40:42;101700.88;;;14.25;100.00
12969;BME280;6549;53.128;8.182;2022-07-23T02:43:42;101705.63;;;14.25;100.00
12969;BME280;6549;53.128;8.182;2022-07-23T02:46:43;101706.34;;;14.11;100.00
12969;BME280;6549;53.128;8.182;2022-07-23T02:49:43;101705.91;;;14.06;100.00
12969;BME280;6549;53.128;8.182;2022-07-23T02:52:43;101699.19;;;14.03;100.00
12969;BME280;6549;53.128;8.182;2022-07-23T02:55:44;101705.47;;;13.97;100.00
12969;BME280;6549;53.128;8.182;2022-07-23T02:58:44;101701.91;;;13.96;100.00
12969;BME280;6549;53.128;8.182;2022-07-23T03:01:45;101706.25;;;13.93;100.00
12969;BME280;6549;53.128;8.182;2022-07-23T03:04:45;101707.41;;;13.92;100.00
12969;BME280;6549;53.128;8.182;2022-07-23T03:07:46;101707.41;;;13.89;100.00
12969;BME280;6549;53.128;8.182;2022-07-23T03:10:46;101706.16;;;13.79;100.00
12969;BME280;6549;53.128;8.182;2022-07-23T03:13:46;101695.81;;;13.73;100.00
12969;BME280;6549;53.128;8.182;2022-07-23T03:16:47;101699.72;;;13.65;100.00
12969;BME280;6549;53.128;8.182;2022-07-23T03:19:49;101700.50;;;13.62;100.00
12969;BME280;6549;53.128;8.182;2022-07-23T03:22:50;101700.47;;;13.58;100.00
12969;BME280;6549;53.128;8.182;2022-07-23T03:25:50;101705.53;;;13.49;100.00
12969;BME280;6549;53.128;8.182;2022-07-23T03:28:50;101707.88;;;13.47;100.00
12969;BME280;6549;53.128;8.182;2022-07-23T03:31:51;101705.09;;;13.47;100.00
12969;BME280;6549;53.128;8.182;2022-07-23T03:34:51;101705.91;;;13.47;100.00
12969;BME280;6549;53.128;8.182;2022-07-23T03:37:51;101714.56;;;13.46;100.00
12969;BME280;6549;53.128;8.182;2022-07-23T03:40:52;101702.31;;;13.43;100.00
12969;BME280;6549;53.128;8.182;2022-07-23T03:43:52;101703.09;;;13.40;100.00
12969;BME280;6549;53.128;8.182;2022-07-23T03:46:52;101701.84;;;13.34;100.00
12969;BME280;6549;53.128;8.182;2022-07-23T03:49:53;101714.03;;;13.30;100.00
12969;BME280;6549;53.128;8.182;2022-07-23T03:52:53;101711.63;;;13.28;100.00
12969;BME280;6549;53.128;8.182;2022-07-23T03:55:54;101709.69;;;13.29;100.00
12969;BME280;6549;53.128;8.182;2022-07-23T03:58:54;101709.28;;;13.27;100.00
12969;BME280;6549;53.128;8.182;2022-07-23T04:01:54;101710.44;;;13.26;100.00
12969;BME280;6549;53.128;8.182;2022-07-23T04:04:55;101711.22;;;13.23;100.00
12969;BME280;6549;53.128;8.182;2022-07-23T04:07:55;101711.16;;;13.19;100.00
12969;BME280;6549;53.128;8.182;2022-07-23T04:10:56;101706.38;;;13.13;100.00
12969;BME280;6549;53.128;8.182;2022-07-23T04:13:56;101711.47;;;13.11;100.00
12969;BME280;6549;53.128;8.182;2022-07-23T04:16:56;101708.66;;;13.07;100.00
12969;BME280;6549;53.128;8.182;2022-07-23T04:19:57;101703.50;;;13.05;100.00
12969;BME280;6549;53.128;8.182;2022-07-23T04:22:57;101710.63;;;13.06;100.00
12969;BME280;6549;53.128;8.182;2022-07-23T04:25:57;101700.75;;;13.05;100.00
12969;BME280;6549;53.128;8.182;2022-07-23T04:28:57;101708.19;;;13.01;100.00
12969;BME280;6549;53.128;8.182;2022-07-23T04:31:58;101705.38;;;12.94;100.00
12969;BME280;6549;53.128;8.182;2022-07-23T04:34:58;101701.34;;;12.88;100.00
12969;BME280;6549;53.128;8.182;2022-07-23T04:37:59;101698.16;;;12.83;100.00
12969;BME280;6549;53.128;8.182;2022-07-23T04:41:00;101702.56;;;12.87;100.00
12969;BME280;6549;53.128;8.182;2022-07-23T04:44:01;101710.47;;;12.92;100.00
12969;BME280;6549;53.128;8.182;2022-07-23T04:47:01;101712.53;;;13.02;100.00
12969;BME280;6549;53.128;8.182;2022-07-23T04:50:02;101715.06;;;13.15;100.00
12969;BME280;6549;53.128;8.182;2022-07-23T04:53:02;101716.72;;;13.23;100.00
12969;BME280;6549;53.128;8.182;2022-07-23T04:56:03;101710.47;;;13.29;100.00
12969;BME280;6549;53.128;8.182;2022-07-23T04:59:03;101711.28;;;13.33;100.00
12969;BME280;6549;53.128;8.182;2022-07-23T05:02:04;101723.19;;;13.41;100.00
12969;BME280;6549;53.128;8.182;2022-07-23T05:05:04;101724.03;;;13.45;100.00
12969;BME280;6549;53.128;8.182;2022-07-23T05:08:05;101730.38;;;13.49;100.00
12969;BME280;6549;53.128;8.182;2022-07-23T05:11:05;101725.00;;;13.67;100.00
12969;BME280;6549;53.128;8.182;2022-07-23T05:14:06;101724.34;;;13.84;100.00
12969;BME280;6549;53.128;8.182;2022-07-23T05:17:06;101723.19;;;13.88;100.00
12969;BME280;6549;53.128;8.182;2022-07-23T05:20:08;101722.41;;;13.91;100.00
12969;BME280;6549;53.128;8.182;2022-07-23T05:23:09;101715.41;;;14.12;100.00
12969;BME280;6549;53.128;8.182;2022-07-23T05:26:10;101723.06;;;14.32;100.00
12969;BME280;6549;53.128;8.182;2022-07-23T05:29:13;101723.91;;;14.47;100.00
12969;BME280;6549;53.128;8.182;2022-07-23T05:32:13;101729.16;;;14.70;100.00
12969;BME280;6549;53.128;8.182;2022-07-23T05:35:14;101729.19;;;14.77;100.00
12969;BME280;6549;53.128;8.182;2022-07-23T05:38:14;101730.03;;;14.99;100.00
12969;BME280;6549;53.128;8.182;2022-07-23T05:41:14;101739.97;;;15.21;100.00
12969;BME280;6549;53.128;8.182;2022-07-23T05:44:15;101735.66;;;15.48;100.00
12969;BME280;6549;53.128;8.182;2022-07-23T05:47:15;101740.84;;;15.71;100.00
12969;BME280;6549;53.128;8.182;2022-07-23T05:50:16;101739.25;;;15.84;100.00
12969;BME280;6549;53.128;8.182;2022-07-23T05:53:16;101737.22;;;16.06;100.00
12969;BME280;6549;53.128;8.182;2022-07-23T05:56:18;101740.72;;;16.31;100.00
12969;BME280;6549;53.128;8.182;2022-07-23T05:59:18;101744.63;;;16.58;100.00
12969;BME280;6549;53.128;8.182;2022-07-23T06:02:19;101754.03;;;16.86;100.00
12969;BME280;6549;53.128;8.182;2022-07-23T06:05:20;101757.47;;;17.08;100.00
12969;BME280;6549;53.128;8.182;2022-07-23T06:08:20;101759.13;;;16.98;100.00
12969;BME280;6549;53.128;8.182;2022-07-23T06:11:21;101766.75;;;16.80;100.00
12969;BME280;6549;53.128;8.182;2022-07-23T06:14:21;101764.41;;;16.68;100.00
12969;BME280;6549;53.128;8.182;2022-07-23T06:17:21;101762.03;;;16.66;100.00
12969;BME280;6549;53.128;8.182;2022-07-23T06:20:22;101770.69;;;16.86;100.00
12969;BME280;6549;53.128;8.182;2022-07-23T06:23:22;101777.09;;;16.72;100.00
12969;BME280;6549;53.128;8.182;2022-07-23T06:26:22;101773.53;;;16.65;100.00
12969;BME280;6549;53.128;8.182;2022-07-23T06:29:23;101777.13;;;16.61;100.00
12969;BME280;6549;53.128;8.182;2022-07-23T06:32:23;101779.13;;;16.57;100.00
12969;BME280;6549;53.128;8.182;2022-07-23T06:35:23;101779.50;;;16.52;100.00
12969;BME280;6549;53.128;8.182;2022-07-23T06:38:24;101780.28;;;16.64;100.00
12969;BME280;6549;53.128;8.182;2022-07-23T06:41:24;101779.91;;;16.54;100.00
12969;BME280;6549;53.128;8.182;2022-07-23T06:44:25;101790.59;;;16.63;100.00
12969;BME280;6549;53.128;8.182;2022-07-23T06:47:25;101786.59;;;16.75;100.00
12969;BME280;6549;53.128;8.182;2022-07-23T06:50:25;101779.47;;;16.70;100.00
12969;BME280;6549;53.128;8.182;2022-07-23T06:53:26;101786.59;;;16.71;100.00
12969;BME280;6549;53.128;8.182;2022-07-23T06:56:26;101785.03;;;16.67;100.00
12969;BME280;6549;53.128;8.182;2022-07-23T06:59:26;101788.19;;;16.69;100.00
12969;BME280;6549;53.128;8.182;2022-07-23T07:02:27;101785.81;;;16.71;100.00
12969;BME280;6549;53.128;8.182;2022-07-23T07:05:27;101783.06;;;16.67;100.00
12969;BME280;6549;53.128;8.182;2022-07-23T07:08:27;101791.38;;;16.67;100.00
12969;BME280;6549;53.128;8.182;2022-07-23T07:11:28;101794.94;;;16.64;100.00
12969;BME280;6549;53.128;8.182;2022-07-23T07:14:28;101793.78;;;16.54;100.00
12969;BME280;6549;53.128;8.182;2022-07-23T07:17:28;101800.91;;;16.48;100.00
12969;BME280;6549;53.128;8.182;2022-07-23T07:20:29;101802.94;;;16.37;100.00
12969;BME280;6549;53.128;8.182;2022-07-23T07:23:29;101802.56;;;16.21;100.00
12969;BME280;6549;53.128;8.182;2022-07-23T07:26:29;101813.66;;;16.07;100.00
12969;BME280;6549;53.128;8.182;2022-07-23T07:29:31;101813.66;;;16.00;100.00
12969;BME280;6549;53.128;8.182;2022-07-23T07:32:31;101809.31;;;15.95;100.00
12969;BME280;6549;53.128;8.182;2022-07-23T07:35:32;101814.44;;;15.93;100.00
12969;BME280;6549;53.128;8.182;2022-07-23T07:38:32;101814.84;;;15.95;100.00
12969;BME280;6549;53.128;8.182;2022-07-23T07:41:33;101808.91;;;15.93;100.00
12969;BME280;6549;53.128;8.182;2022-07-23T07:44:33;101814.47;;;15.97;100.00
12969;BME280;6549;53.128;8.182;2022-07-23T07:47:33;101806.13;;;16.04;100.00
12969;BME280;6549;53.128;8.182;2022-07-23T07:50:34;101825.16;;;16.12;100.00
12969;BME280;6549;53.128;8.182;2022-07-23T07:53:34;101824.72;;;16.21;100.00
12969;BME280;6549;53.128;8.182;2022-07-23T07:56:34;101830.28;;;16.32;100.00
12969;BME280;6549;53.128;8.182;2022-07-23T07:59:35;101818.38;;;16.31;100.00
12969;BME280;6549;53.128;8.182;2022-07-23T08:02:40;101827.91;;;16.37;100.00
12969;BME280;6549;53.128;8.182;2022-07-23T08:05:41;101833.41;;;16.51;100.00
12969;BME280;6549;53.128;8.182;2022-07-23T08:08:41;101833.03;;;16.64;100.00
12969;BME280;6549;53.128;8.182;2022-07-23T08:11:41;101841.66;;;16.83;100.00
12969;BME280;6549;53.128;8.182;2022-07-23T08:14:42;101835.22;;;17.04;100.00
12969;BME280;6549;53.128;8.182;2022-07-23T08:17:43;101848.63;;;17.27;100.00
12969;BME280;6549;53.128;8.182;2022-07-23T08:20:44;101838.16;;;17.48;100.00
12969;BME280;6549;53.128;8.182;2022-07-23T08:23:45;101844.84;;;17.69;100.00
12969;BME280;6549;53.128;8.182;2022-07-23T08:26:45;101841.16;;;17.82;100.00
12969;BME280;6549;53.128;8.182;2022-07-23T08:29:46;101839.69;;;17.64;100.00
12969;BME280;6549;53.128;8.182;2022-07-23T08:32:52;101846.25;;;17.91;100.00
12969;BME280;6549;53.128;8.182;2022-07-23T08:35:52;101847.53;;;18.24;100.00
12969;BME280;6549;53.128;8.182;2022-07-23T08:38:54;101826.66;;;18.46;100.00
12969;BME280;6549;53.128;8.182;2022-07-23T08:41:54;101835.88;;;18.80;100.00
12969;BME280;6549;53.128;8.182;2022-07-23T08:44:54;101835.00;;;19.48;100.00
12969;BME280;6549;53.128;8.182;2022-07-23T08:47:56;101833.19;;;19.88;100.00
12969;BME280;6549;53.128;8.182;2022-07-23T08:51:01;101830.63;;;20.20;100.00
12969;BME280;6549;53.128;8.182;2022-07-23T08:54:01;101835.03;;;20.44;100.00
12969;BME280;6549;53.128;8.182;2022-07-23T08:57:02;101835.91;;;20.61;100.00
12969;BME280;6549;53.128;8.182;2022-07-23T09:00:04;101831.78;;;20.46;100.00
12969;BME280;6549;53.128;8.182;2022-07-23T09:03:06;101832.84;;;20.32;100.00
12969;BME280;6549;53.128;8.182;2022-07-23T09:06:06;101831.28;;;20.28;100.00
12969;BME280;6549;53.128;8.182;2022-07-23T09:09:20;101836.31;;;20.59;100.00
12969;BME280;6549;53.128;8.182;2022-07-23T09:12:25;101825.38;;;20.88;100.00
12969;BME280;6549;53.128;8.182;2022-07-23T09:15:25;101832.69;;;20.82;94.99
12969;BME280;6549;53.128;8.182;2022-07-23T09:18:56;101830.72;;;20.99;93.03
12969;BME280;6549;53.128;8.182;2022-07-23T09:22:19;101826.56;;;21.07;92.18
12969;BME280;6549;53.128;8.182;2022-07-23T09:25:19;101833.59;;;20.76;90.82
12969;BME280;6549;53.128;8.182;2022-07-23T09:28:20;101833.66;;;20.72;91.70
12969;BME280;6549;53.128;8.182;2022-07-23T09:31:20;101825.88;;;20.63;89.42
12969;BME280;6549;53.128;8.182;2022-07-23T09:34:31;101835.03;;;20.44;94.38
12969;BME280;6549;53.128;8.182;2022-07-23T09:37:35;101836.75;;;20.58;86.55
12969;BME280;6549;53.128;8.182;2022-07-23T09:40:35;101831.03;;;20.65;88.91
12969;BME280;6549;53.128;8.182;2022-07-23T09:43:36;101830.88;;;20.92;87.35
12969;BME280;6549;53.128;8.182;2022-07-23T09:46:36;101828.28;;;21.21;77.60
12969;BME280;6549;53.128;8.182;2022-07-23T09:49:39;101839.19;;;21.51;76.63
12969;BME280;6549;53.128;8.182;2022-07-23T09:52:44;101835.41;;;21.93;72.50
12969;BME280;6549;53.128;8.182;2022-07-23T09:55:46;101833.63;;;22.32;74.72
12969;BME280;6549;53.128;8.182;2022-07-23T09:58:49;101833.63;;;22.32;72.80
12969;BME280;6549;53.128;8.182;2022-07-23T10:01:52;101835.53;;;22.35;76.70
12969;BME280;6549;53.128;8.182;2022-07-23T10:04:54;101838.88;;;22.59;72.77
12969;BME280;6549;53.128;8.182;2022-07-23T10:07:59;101842.84;;;22.00;68.77
12969;BME280;6549;53.128;8.182;2022-07-23T10:11:01;101835.19;;;21.52;75.45
12969;BME280;6549;53.128;8.182;2022-07-23T10:14:03;101841.09;;;21.38;73.59
12969;BME280;6549;53.128;8.182;2022-07-23T10:17:05;101842.66;;;21.39;76.03
12969;BME280;6549;53.128;8.182;2022-07-23T10:20:05;101846.69;;;21.38;78.49
12969;BME280;6549;53.128;8.182;2022-07-23T10:23:20;101851.56;;;21.34;79.06
12969;BME280;6549;53.128;8.182;2022-07-23T10:29:52;101861.63;;;21.31;76.67
12969;BME280;6549;53.128;8.182;2022-07-23T10:36:54;101851.34;;;21.44;69.31
12969;BME280;6549;53.128;8.182;2022-07-23T10:43:15;101852.59;;;22.86;61.97
12969;BME280;6549;53.128;8.182;2022-07-23T10:46:22;101848.22;;;22.68;59.33
12969;BME280;6549;53.128;8.182;2022-07-23T10:52:36;101842.53;;;22.43;65.08
12969;BME280;6549;53.128;8.182;2022-07-23T10:58:48;101848.50;;;22.58;60.44
12969;BME280;6549;53.128;8.182;2022-07-23T11:01:49;101852.31;;;23.09;57.63
12969;BME280;6549;53.128;8.182;2022-07-23T11:04:51;101840.88;;;23.28;55.69
12969;BME280;6549;53.128;8.182;2022-07-23T11:14:05;101846.28;;;24.24;49.57
12969;BME280;6549;53.128;8.182;2022-07-23T11:17:19;101849.84;;;24.12;48.58
12969;BME280;6549;53.128;8.182;2022-07-23T11:20:21;101856.66;;;23.51;49.35
12969;BME280;6549;53.128;8.182;2022-07-23T11:23:22;101841.84;;;22.68;52.75
12969;BME280;6549;53.128;8.182;2022-07-23T11:26:57;101857.06;;;22.38;53.82
12969;BME280;6549;53.128;8.182;2022-07-23T11:29:58;101861.78;;;21.76;56.15
12969;BME280;6549;53.128;8.182;2022-07-23T11:36:08;101863.66;;;22.76;55.29
12969;BME280;6549;53.128;8.182;2022-07-23T11:39:08;101857.16;;;23.21;48.87
12969;BME280;6549;53.128;8.182;2022-07-23T11:42:09;101846.19;;;23.39;51.16
12969;BME280;6549;53.128;8.182;2022-07-23T11:45:10;101855.66;;;23.70;47.56
12969;BME280;6549;53.128;8.182;2022-07-23T11:48:22;101855.47;;;24.12;47.26
12969;BME280;6549;53.128;8.182;2022-07-23T11:51:26;101865.25;;;24.54;46.53
12969;BME280;6549;53.128;8.182;2022-07-23T11:54:26;101857.41;;;24.02;48.18
12969;BME280;6549;53.128;8.182;2022-07-23T11:57:31;101862.59;;;23.53;49.49
12969;BME280;6549;53.128;8.182;2022-07-23T12:00:33;101858.84;;;23.18;48.46
12969;BME280;6549;53.128;8.182;2022-07-23T12:03:33;101858.88;;;22.90;48.10
12969;BME280;6549;53.128;8.182;2022-07-23T12:06:37;101853.72;;;23.55;49.37
12969;BME280;6549;53.128;8.182;2022-07-23T12:09:44;101851.88;;;24.24;47.03
12969;BME280;6549;53.128;8.182;2022-07-23T12:12:50;101861.66;;;24.54;44.33
12969;BME280;6549;53.128;8.182;2022-07-23T12:15:53;101862.53;;;24.64;42.81
12969;BME280;6549;53.128;8.182;2022-07-23T12:18:53;101852.34;;;24.10;44.11
12969;BME280;6549;53.128;8.182;2022-07-23T12:21:54;101855.47;;;23.99;46.34
12969;BME280;6549;53.128;8.182;2022-07-23T12:24:57;101868.72;;;23.23;47.35
12969;BME280;6549;53.128;8.182;2022-07-23T12:31:03;101860.06;;;23.17;49.68
12969;BME280;6549;53.128;8.182;2022-07-23T12:34:14;101850.94;;;23.80;47.91
12969;BME280;6549;53.128;8.182;2022-07-23T12:37:32;101864.59;;;24.50;43.51
12969;BME280;6549;53.128;8.182;2022-07-23T12:40:44;101873.84;;;24.73;45.29
12969;BME280;6549;53.128;8.182;2022-07-23T12:43:46;101873.75;;;24.98;43.29
12969;BME280;6549;53.128;8.182;2022-07-23T12:46:51;101861.03;;;25.15;44.92
12969;BME280;6549;53.128;8.182;2022-07-23T12:49:51;101870.19;;;25.59;41.97
12969;BME280;6549;53.128;8.182;2022-07-23T12:53:04;101859.16;;;25.74;43.02
12969;BME280;6549;53.128;8.182;2022-07-23T12:56:07;101862.97;;;25.89;41.11
12969;BME280;6549;53.128;8.182;2022-07-23T12:59:09;101862.03;;;25.92;43.33
12969;BME280;6549;53.128;8.182;2022-07-23T13:02:10;101868.69;;;25.45;43.42
12969;BME280;6549;53.128;8.182;2022-07-23T13:05:11;101872.84;;;24.67;43.01
12969;BME280;6549;53.128;8.182;2022-07-23T13:08:11;101867.81;;;24.14;45.73
12969;BME280;6549;53.128;8.182;2022-07-23T13:11:11;101874.97;;;24.41;45.05
12969;BME280;6549;53.128;8.182;2022-07-23T13:14:13;101865.81;;;25.05;42.81
12969;BME280;6549;53.128;8.182;2022-07-23T13:17:13;101872.28;;;24.72;43.15
12969;BME280;6549;53.128;8.182;2022-07-23T13:20:14;101884.41;;;24.47;46.48
12969;BME280;6549;53.128;8.182;2022-07-23T13:23:15;101882.97;;;24.30;46.04
12969;BME280;6549;53.128;8.182;2022-07-23T13:26:15;101877.69;;;24.32;44.73
12969;BME280;6549;53.128;8.182;2022-07-23T13:29:16;101878.28;;;24.83;43.79
12969;BME280;6549;53.128;8.182;2022-07-23T13:32:16;101879.06;;;24.96;43.06
12969;BME280;6549;53.128;8.182;2022-07-23T13:35:16;101877.25;;;24.68;42.56
12969;BME280;6549;53.128;8.182;2022-07-23T13:38:18;101890.50;;;24.33;43.50
12969;BME280;6549;53.128;8.182;2022-07-23T13:41:19;101889.66;;;23.60;46.86
12969;BME280;6549;53.128;8.182;2022-07-23T13:44:19;101880.22;;;23.54;49.58
12969;BME280;6549;53.128;8.182;2022-07-23T13:47:19;101890.88;;;23.97;47.92
12969;BME280;6549;53.128;8.182;2022-07-23T13:50:20;101881.94;;;24.36;44.97
12969;BME280;6549;53.128;8.182;2022-07-23T13:53:23;101884.91;;;24.33;44.98
12969;BME280;6549;53.128;8.182;2022-07-23T13:56:23;101878.44;;;24.45;44.91
12969;BME280;6549;53.128;8.182;2022-07-23T13:59:23;101883.91;;;24.83;45.09
12969;BME280;6549;53.128;8.182;2022-07-23T14:02:24;101883.50;;;24.72;42.50
12969;BME280;6549;53.128;8.182;2022-07-23T14:05:25;101878.50;;;24.32;43.30
12969;BME280;6549;53.128;8.182;2022-07-23T14:08:25;101889.59;;;24.36;44.65
12969;BME280;6549;53.128;8.182;2022-07-23T14:11:26;101888.69;;;24.39;47.68
12969;BME280;6549;53.128;8.182;2022-07-23T14:14:26;101889.63;;;23.72;45.90
12969;BME280;6549;53.128;8.182;2022-07-23T14:17:26;101889.03;;;23.27;47.71
12969;BME280;6549;53.128;8.182;2022-07-23T14:20:27;101885.59;;;23.07;50.12
12969;BME280;6549;53.128;8.182;2022-07-23T14:23:27;101886.19;;;23.14;49.80
12969;BME280;6549;53.128;8.182;2022-07-23T14:26:28;101893.97;;;22.94;50.94
12969;BME280;6549;53.128;8.182;2022-07-23T14:29:29;101897.28;;;22.76;49.80
12969;BME280;6549;53.128;8.182;2022-07-23T14:32:30;101900.34;;;22.66;50.37
12969;BME280;6549;53.128;8.182;2022-07-23T14:35:30;101893.06;;;22.68;51.41
12969;BME280;6549;53.128;8.182;2022-07-23T14:38:30;101894.41;;;22.93;49.34
12969;BME280;6549;53.128;8.182;2022-07-23T14:41:31;101898.16;;;22.73;50.50
12969;BME280;6549;53.128;8.182;2022-07-23T14:44:31;101898.56;;;22.43;51.06
12969;BME280;6549;53.128;8.182;2022-07-23T14:47:31;101903.34;;;22.26;51.48
12969;BME280;6549;53.128;8.182;2022-07-23T14:50:32;101895.22;;;22.48;52.00
12969;BME280;6549;53.128;8.182;2022-07-23T14:53:32;101898.78;;;22.94;51.36
12969;BME280;6549;53.128;8.182;2022-07-23T14:56:33;101896.00;;;23.35;50.04
12969;BME280;6549;53.128;8.182;2022-07-23T14:59:33;101889.66;;;23.60;48.48
12969;BME280;6549;53.128;8.182;2022-07-23T15:02:34;101890.66;;;23.53;48.11
12969;BME280;6549;53.128;8.182;2022-07-23T15:05:34;101877.59;;;23.34;49.75
12969;BME280;6549;53.128;8.182;2022-07-23T15:08:35;101881.06;;;23.25;49.91
12969;BME280;6549;53.128;8.182;2022-07-23T15:11:35;101885.50;;;23.10;50.74
12969;BME280;6549;53.128;8.182;2022-07-23T15:14:36;101884.66;;;23.26;50.67
12969;BME280;6549;53.128;8.182;2022-07-23T15:17:36;101882.25;;;23.53;50.71
12969;BME280;6549;53.128;8.182;2022-07-23T15:20:37;101885.59;;;23.48;48.90
12969;BME280;6549;53.128;8.182;2022-07-23T15:23:37;101885.16;;;23.50;48.53
12969;BME280;6549;53.128;8.182;2022-07-23T15:26:39;101882.94;;;23.16;49.66
12969;BME280;6549;53.128;8.182;2022-07-23T15:29:39;101877.72;;;23.02;51.15
12969;BME280;6549;53.128;8.182;2022-07-23T15:32:40;101876.19;;;22.72;52.15
12969;BME280;6549;53.128;8.182;2022-07-23T15:35:40;101880.09;;;23.03;52.89
12969;BME280;6549;53.128;8.182;2022-07-23T15:38:41;101880.91;;;23.58;50.63
12969;BME280;6549;53.128;8.182;2022-07-23T15:41:41;101880.91;;;23.58;49.23
12969;BME280;6549;53.128;8.182;2022-07-23T15:44:42;101881.91;;;23.51;49.65
12969;BME280;6549;53.128;8.182;2022-07-23T15:47:43;101878.63;;;22.99;50.85
12969;BME280;6549;53.128;8.182;2022-07-23T15:50:43;101878.34;;;23.09;50.88
12969;BME280;6549;53.128;8.182;2022-07-23T15:53:44;101875.13;;;23.36;52.37
12969;BME280;6549;53.128;8.182;2022-07-23T15:56:44;101871.91;;;23.50;51.49
12969;BME280;6549;53.128;8.182;2022-07-23T15:59:44;101877.63;;;23.59;49.20
12969;BME280;6549;53.128;8.182;2022-07-23T16:02:45;101890.88;;;23.46;50.29
12969;BME280;6549;53.128;8.182;2022-07-23T16:05:45;101889.31;;;23.16;51.55
12969;BME280;6549;53.128;8.182;2022-07-23T16:08:45;101872.44;;;22.91;53.59
12969;BME280;6549;53.128;8.182;2022-07-23T16:11:46;101878.22;;;23.13;54.16
12969;BME280;6549;53.128;8.182;2022-07-23T16:14:46;101877.88;;;23.23;51.70
12969;BME280;6549;53.128;8.182;2022-07-23T16:17:47;101879.16;;;22.94;52.40
12969;BME280;6549;53.128;8.182;2022-07-23T16:20:48;101869.44;;;22.53;53.25
12969;BME280;6549;53.128;8.182;2022-07-23T16:23:49;101874.16;;;22.72;53.43